Time;durP1;ratioP1;P1;durP2;ratioP2;P2;SDS_P1;SDS_P2;PMS_P1;PMS_P2;Temp;Humidity;BMP_temperature;BMP_pressure;BME280_temperature;BME280_humidity;BME280_pressure;Samples;Min_cycle;Max_cycle;Signal;HPM_P1;HPM_P2
2022/06/18 00:02:00;;;;;;;4.93;1.37;;;;;;;20.64;44.94;100482.88;4347041;33;34690;-84
2022/06/18 00:04:31;;;;;;;4.65;1.50;;;;;;;20.68;44.82;100482.09;4334935;33;34064;-84
2022/06/18 00:07:01;;;;;;;6.80;1.60;;;;;;;20.53;44.64;100476.28;4335000;33;32467;-84
2022/06/18 00:09:41;;;;;;;5.35;1.52;;;;;;;20.60;44.29;100476.94;4347083;33;33659;-83
2022/06/18 00:15:13;;;;;;;3.62;1.70;;;;;;;20.46;45.05;100481.19;4347411;33;34678;-84
2022/06/18 00:17:41;;;;;;;5.00;1.60;;;;;;;20.50;45.12;100487.94;4334739;33;34867;-84
2022/06/18 00:20:11;;;;;;;4.30;2.05;;;;;;;20.42;45.34;100482.78;4347240;33;33446;-84
2022/06/18 00:22:47;;;;;;;5.93;2.30;;;;;;;20.44;45.46;100488.13;4334943;33;34627;-84
2022/06/18 00:25:22;;;;;;;3.87;1.70;;;;;;;20.41;45.60;100481.09;4334732;33;34571;-84
2022/06/18 00:27:50;;;;;;;3.80;1.73;;;;;;;20.33;45.63;100487.91;4334617;33;34213;-84
2022/06/18 00:30:21;;;;;;;3.87;2.03;;;;;;;20.29;45.69;100491.47;4334850;33;34361;-84
2022/06/18 00:32:51;;;;;;;7.75;2.35;;;;;;;20.34;45.51;100495.19;4334891;33;34725;-84
2022/06/18 00:35:19;;;;;;;4.47;1.80;;;;;;;20.27;45.63;100493.66;4334754;33;32809;-83
2022/06/18 00:37:52;;;;;;;3.97;1.90;;;;;;;20.37;45.50;100488.25;4334542;33;31992;-84
2022/06/18 00:40:23;;;;;;;5.93;2.10;;;;;;;20.19;45.97;100482.94;4334828;33;34260;-85
2022/06/18 00:42:52;;;;;;;5.70;2.53;;;;;;;20.24;45.96;100488.59;4346860;33;32285;-83
2022/06/18 00:45:28;;;;;;;5.12;2.45;;;;;;;20.16;46.04;100489.00;4346429;33;34348;-84
2022/06/18 00:48:08;;;;;;;7.18;2.70;;;;;;;20.04;46.29;100487.16;4334622;33;32421;-83
2022/06/18 00:50:53;;;;;;;7.03;2.97;;;;;;;20.00;46.54;100488.75;4346870;33;32137;-84
2022/06/18 00:53:25;;;;;;;5.95;2.90;;;;;;;20.04;46.53;100489.94;4334144;33;32410;-83
2022/06/18 00:55:57;;;;;;;4.78;2.30;;;;;;;20.08;46.55;100489.44;4334186;33;35190;-84
2022/06/18 00:58:33;;;;;;;4.82;1.85;;;;;;;20.15;45.75;100492.91;4334054;32;32821;-84
2022/06/18 01:01:02;;;;;;;4.15;1.87;;;;;;;20.12;44.92;100490.63;4345974;33;34214;-84
2022/06/18 01:03:38;;;;;;;3.55;1.87;;;;;;;20.00;44.96;100485.13;4334833;33;33480;-84
2022/06/18 01:06:15;;;;;;;3.35;1.80;;;;;;;19.91;45.50;100493.06;4334281;33;35082;-83
2022/06/18 01:08:44;;;;;;;5.40;1.95;;;;;;;19.90;45.84;100494.16;4334260;33;33495;-84
2022/06/18 01:11:21;;;;;;;3.65;1.70;;;;;;;19.98;45.72;100496.53;4334504;33;33700;-84
2022/06/18 01:13:49;;;;;;;4.45;1.65;;;;;;;20.03;45.63;100490.19;4334447;32;33114;-84
2022/06/18 01:16:20;;;;;;;3.72;1.58;;;;;;;19.85;45.54;100490.44;4334124;33;35226;-84
2022/06/18 01:18:49;;;;;;;4.28;1.67;;;;;;;19.78;45.67;100492.50;4334183;32;31986;-84
2022/06/18 01:21:35;;;;;;;3.67;1.60;;;;;;;19.84;45.79;100488.72;4334333;33;33652;-84
2022/06/18 01:24:21;;;;;;;4.07;1.77;;;;;;;20.03;45.29;100488.25;4358383;32;33813;-84
2022/06/18 01:26:54;;;;;;;4.60;1.77;;;;;;;19.81;45.68;100484.50;4346217;32;34082;-84
2022/06/18 01:29:28;;;;;;;3.58;1.48;;;;;;;19.80;45.81;100491.16;4334283;33;34839;-84
2022/06/18 01:31:58;;;;;;;3.58;1.67;;;;;;;19.82;46.10;100485.34;4334274;33;32904;-84
2022/06/18 01:34:29;;;;;;;3.03;1.55;;;;;;;19.72;46.33;100478.50;4334547;32;33254;-84
2022/06/18 01:36:59;;;;;;;4.47;1.80;;;;;;;19.76;46.45;100481.63;4333858;33;34277;-84
2022/06/18 01:39:33;;;;;;;3.80;1.58;;;;;;;19.64;46.75;100478.03;4345391;32;32510;-83
2022/06/18 01:42:16;;;;;;;2.37;1.48;;;;;;;19.77;46.54;100472.19;4333385;33;32940;-83
2022/06/18 01:44:54;;;;;;;4.68;1.75;;;;;;;19.80;46.48;100471.69;4333672;33;33209;-84
2022/06/18 01:47:28;;;;;;;3.33;1.55;;;;;;;19.76;46.72;100472.44;4334104;32;34058;-84
2022/06/18 01:50:04;;;;;;;3.22;1.60;;;;;;;19.80;46.76;100474.47;4334164;33;34131;-84
2022/06/18 01:52:36;;;;;;;3.30;1.45;;;;;;;19.80;46.85;100465.25;4358202;32;34175;-84
2022/06/18 01:55:12;;;;;;;3.58;1.70;;;;;;;19.84;46.56;100464.50;4321756;33;32314;-84
2022/06/18 01:57:46;;;;;;;4.32;1.45;;;;;;;19.77;46.76;100474.97;4333565;32;33007;-84
2022/06/18 02:00:19;;;;;;;2.97;1.60;;;;;;;19.75;47.19;100471.56;4333607;32;33953;-85
2022/06/18 02:02:51;;;;;;;5.25;1.80;;;;;;;19.87;47.09;100472.38;4336220;32;31762;-84
2022/06/18 02:05:20;;;;;;;4.57;1.62;;;;;;;19.82;47.50;100479.78;4348953;32;33918;-84
2022/06/18 02:07:51;;;;;;;4.37;1.77;;;;;;;19.85;47.54;100468.97;4338403;32;34440;-78
2022/06/18 02:10:31;;;;;;;2.28;1.35;;;;;;;19.85;47.67;100470.94;4338406;32;34114;-83
2022/06/18 02:13:05;;;;;;;2.40;1.42;;;;;;;19.80;48.03;100473.63;4350371;32;32151;-82
2022/06/18 02:15:46;;;;;;;3.25;1.60;;;;;;;19.81;47.99;100469.72;4338456;32;33752;-82
2022/06/18 02:18:16;;;;;;;3.90;1.67;;;;;;;19.76;48.14;100470.47;4350366;32;33802;-82
2022/06/18 02:20:50;;;;;;;4.82;1.90;;;;;;;19.72;48.08;100470.13;4350596;32;34133;-83
2022/06/18 02:23:19;;;;;;;3.30;1.47;;;;;;;19.87;47.57;100463.16;4350664;32;33299;-82
2022/06/18 02:25:48;;;;;;;5.93;1.62;;;;;;;19.74;47.94;100465.16;4350337;32;32270;-82
2022/06/18 02:28:23;;;;;;;3.50;1.50;;;;;;;19.67;48.27;100466.41;4326088;32;32458;-82
2022/06/18 02:30:55;;;;;;;4.62;2.35;;;;;;;19.64;48.57;100464.97;4338462;32;33786;-82
2022/06/18 02:33:31;;;;;;;3.92;1.40;;;;;;;19.51;49.01;100461.59;4350433;32;33552;-82
2022/06/18 02:36:06;;;;;;;3.78;1.70;;;;;;;19.48;48.95;100462.12;4338256;32;32855;-82
2022/06/18 02:38:33;;;;;;;3.75;1.80;;;;;;;19.40;49.29;100458.66;4337827;32;34406;-82
2022/06/18 02:41:04;;;;;;;3.35;1.77;;;;;;;19.36;49.40;100453.81;4350487;32;34947;-82
2022/06/18 02:43:35;;;;;;;6.87;1.60;;;;;;;19.28;49.76;100463.41;4338128;32;32084;-83
2022/06/18 02:46:03;;;;;;;3.37;1.77;;;;;;;19.44;49.05;100463.72;4337624;32;33326;-83
2022/06/18 02:48:35;;;;;;;3.17;1.55;;;;;;;19.41;49.01;100465.06;4338139;32;34164;-83
2022/06/18 02:51:04;;;;;;;3.70;1.50;;;;;;;19.39;49.00;100458.91;4338138;32;32436;-83
2022/06/18 02:53:34;;;;;;;4.90;2.00;;;;;;;19.23;49.42;100471.66;4338124;32;33512;-82
2022/06/18 02:56:05;;;;;;;4.22;1.52;;;;;;;19.22;49.55;100467.19;4325871;32;34540;-83
2022/06/18 02:58:38;;;;;;;6.78;2.00;;;;;;;19.26;49.40;100465.59;4338298;32;34428;-83
2022/06/18 03:01:21;;;;;;;3.92;2.30;;;;;;;19.23;49.47;100471.66;4338051;32;33974;-82
2022/06/18 03:03:52;;;;;;;3.80;2.00;;;;;;;19.34;49.11;100465.22;4337955;32;33250;-82
2022/06/18 03:06:23;;;;;;;3.50;1.92;;;;;;;19.09;49.99;100473.88;4350176;32;33622;-82
2022/06/18 03:08:55;;;;;;;2.92;1.80;;;;;;;19.06;50.17;100476.28;4338446;32;33091;-83
2022/06/18 03:14:15;;;;;;;5.97;1.80;;;;;;;19.08;50.61;100474.13;4339771;32;31923;-83
2022/06/18 03:16:43;;;;;;;5.95;1.92;;;;;;;19.03;50.78;100468.44;4336879;32;33653;-82
2022/06/18 03:19:23;;;;;;;5.80;1.77;;;;;;;19.07;50.75;100464.06;4325872;32;32946;-83
2022/06/18 03:21:55;;;;;;;5.97;1.90;;;;;;;19.09;50.74;100471.09;4338384;32;34043;-82
2022/06/18 03:24:23;;;;;;;5.78;1.92;;;;;;;19.04;50.80;100472.91;4350144;32;32074;-83
2022/06/18 03:26:54;;;;;;;4.72;2.10;;;;;;;19.15;50.49;100472.03;4350064;32;33522;-83
2022/06/18 03:29:21;;;;;;;5.45;2.30;;;;;;;19.11;50.42;100470.84;4349959;32;34488;-82
2022/06/18 03:31:52;;;;;;;6.25;2.47;;;;;;;19.19;50.27;100475.19;4350034;32;33514;-83
2022/06/18 03:34:25;;;;;;;4.35;2.12;;;;;;;19.25;50.09;100471.41;4337903;32;32012;-83
2022/06/18 03:36:56;;;;;;;4.50;2.28;;;;;;;19.15;50.58;100477.59;4350089;32;33346;-82
2022/06/18 03:39:25;;;;;;;5.28;2.25;;;;;;;19.18;50.70;100482.69;4338656;32;35120;-83
2022/06/18 03:41:56;;;;;;;6.80;2.42;;;;;;;19.21;50.64;100479.41;4350128;32;32588;-83
2022/06/18 03:44:25;;;;;;;4.15;2.05;;;;;;;19.13;51.07;100481.72;4350195;32;34359;-83
2022/06/18 03:46:54;;;;;;;6.85;1.98;;;;;;;19.21;50.63;100482.19;4349911;32;33666;-82
2022/06/18 03:49:24;;;;;;;6.12;2.37;;;;;;;19.13;50.79;100479.78;4325592;32;33006;-82
2022/06/18 03:51:53;;;;;;;3.37;1.70;;;;;;;19.22;50.60;100481.09;4362291;32;34211;-83
2022/06/18 03:54:21;;;;;;;4.40;1.90;;;;;;;19.22;50.67;100481.09;4338056;32;33521;-83
2022/06/18 03:56:51;;;;;;;5.65;1.87;;;;;;;19.22;50.33;100481.09;4338065;32;33497;-83
2022/06/18 03:59:22;;;;;;;4.05;1.83;;;;;;;19.40;49.78;100472.56;4349553;32;32901;-83
2022/06/18 04:01:52;;;;;;;4.37;1.90;;;;;;;19.40;49.59;100478.13;4349788;32;33413;-83
2022/06/18 04:04:27;;;;;;;8.02;2.22;;;;;;;19.32;49.92;100481.31;4338613;32;34181;-83
2022/06/18 04:06:55;;;;;;;4.03;1.95;;;;;;;19.40;49.87;100475.34;4338080;32;33781;-84
2022/06/18 04:09:26;;;;;;;3.87;1.70;;;;;;;19.45;50.25;100479.34;4338557;32;35244;-83
2022/06/18 04:11:56;;;;;;;4.32;1.85;;;;;;;19.49;50.63;100486.09;4337618;32;33426;-84
2022/06/18 04:14:24;;;;;;;4.12;1.62;;;;;;;19.53;51.02;100481.72;4350223;32;34240;-84
2022/06/18 04:16:55;;;;;;;4.47;1.80;;;;;;;19.70;50.27;100488.19;4349639;32;32562;-83
2022/06/18 04:19:23;;;;;;;3.00;1.65;;;;;;;19.79;49.55;100485.84;4337690;32;33340;-86
2022/06/18 04:21:52;;;;;;;3.97;1.75;;;;;;;19.69;49.35;100479.00;4337339;32;33569;-84
2022/06/18 04:24:22;;;;;;;3.53;1.70;;;;;;;19.69;49.10;100492.91;4337510;32;31828;-84
2022/06/18 04:26:52;;;;;;;3.42;1.60;;;;;;;19.73;49.33;100488.53;4336885;32;32501;-84
2022/06/18 04:29:21;;;;;;;7.00;2.40;;;;;;;19.90;48.82;100490.53;4349498;32;33907;-84
2022/06/18 04:31:50;;;;;;;3.03;1.60;;;;;;;19.87;48.65;100483.50;4337581;32;32397;-85
2022/06/18 04:34:21;;;;;;;3.80;1.73;;;;;;;19.84;48.70;100495.16;4349944;32;33515;-84
2022/06/18 04:36:49;;;;;;;3.90;1.90;;;;;;;20.00;48.22;100479.56;4349485;32;32063;-84
2022/06/18 04:39:24;;;;;;;4.37;1.85;;;;;;;20.08;48.14;100484.72;4337191;32;34183;-84
2022/06/18 04:41:56;;;;;;;4.72;1.92;;;;;;;20.08;48.37;100487.50;4365707;32;34008;-86
2022/06/18 04:44:25;;;;;;;4.75;1.73;;;;;;;20.12;48.42;100490.63;4324696;32;31852;-86
2022/06/18 04:46:56;;;;;;;4.90;2.05;;;;;;;20.17;49.06;100493.47;4349543;32;32405;-86
2022/06/18 04:49:27;;;;;;;3.40;1.65;;;;;;;20.34;48.84;100494.34;4349631;32;34037;-85
2022/06/18 04:51:55;;;;;;;4.82;1.83;;;;;;;20.45;48.27;100490.66;4353901;32;33399;-84
2022/06/18 04:54:28;;;;;;;3.90;1.85;;;;;;;20.46;48.06;100500.72;4358133;32;31756;-84
2022/06/18 04:56:57;;;;;;;3.08;1.55;;;;;;;20.58;47.78;100501.47;4364322;32;33650;-83
2022/06/18 04:59:33;;;;;;;4.93;2.30;;;;;;;20.67;47.43;100505.50;4352039;32;32925;-83
2022/06/18 05:02:05;;;;;;;4.05;2.00;;;;;;;20.69;47.89;100503.31;4363775;32;33959;-84
2022/06/18 05:04:35;;;;;;;5.70;2.20;;;;;;;20.74;47.60;100507.28;4351625;32;32108;-84
2022/06/18 05:07:07;;;;;;;5.35;1.80;;;;;;;20.85;47.74;100507.16;4364435;32;33753;-83
2022/06/18 05:09:37;;;;;;;6.05;2.10;;;;;;;21.03;47.59;100504.06;4369402;32;33908;-84
2022/06/18 05:12:05;;;;;;;3.87;1.85;;;;;;;21.13;47.37;100502.50;4370953;32;33915;-84
2022/06/18 05:14:34;;;;;;;6.85;2.12;;;;;;;21.15;47.47;100503.94;4359721;32;34284;-83
2022/06/18 05:17:05;;;;;;;4.35;1.98;;;;;;;21.14;47.76;100501.41;4378625;32;33541;-84
2022/06/18 05:19:34;;;;;;;4.95;2.10;;;;;;;21.42;46.84;100504.06;4366813;32;33917;-84
2022/06/18 05:22:04;;;;;;;5.20;1.83;;;;;;;21.35;46.66;100504.25;4378998;32;33864;-82
2022/06/18 05:24:31;;;;;;;5.72;2.08;;;;;;;21.42;46.55;100506.84;4366339;32;33380;-84
2022/06/18 05:27:00;;;;;;;4.97;2.10;;;;;;;21.69;45.84;100506.84;4378065;32;33333;-83
2022/06/18 05:29:32;;;;;;;3.92;1.90;;;;;;;21.76;45.35;100504.69;4377715;32;33879;-84
2022/06/18 05:32:03;;;;;;;6.75;2.47;;;;;;;21.69;45.34;100510.50;4378980;32;33675;-83
2022/06/18 05:34:32;;;;;;;4.93;2.20;;;;;;;21.75;45.08;100514.19;4378995;32;34241;-84
2022/06/18 05:37:00;;;;;;;5.20;2.20;;;;;;;21.89;45.27;100514.63;4363680;32;33784;-83
2022/06/18 05:39:27;;;;;;;4.37;2.42;;;;;;;22.17;44.78;100516.31;4378552;32;34469;-83
2022/06/18 05:41:55;;;;;;;4.00;2.20;;;;;;;21.96;44.71;100518.91;4370004;32;33997;-84
2022/06/18 05:44:24;;;;;;;7.30;3.55;;;;;;;22.05;44.56;100518.47;4380459;32;32661;-80
2022/06/18 05:46:52;;;;;;;4.35;2.40;;;;;;;22.16;44.70;100529.44;4380485;32;33157;-79
2022/06/18 05:49:22;;;;;;;13.62;6.28;;;;;;;22.28;44.59;100526.47;4380722;32;35161;-79
2022/06/18 05:51:50;;;;;;;4.43;2.37;;;;;;;22.44;44.37;100525.50;4380814;32;33991;-83
2022/06/18 05:54:19;;;;;;;5.60;2.22;;;;;;;22.59;44.50;100530.38;4381523;32;32962;-88
2022/06/18 05:56:51;;;;;;;4.68;2.25;;;;;;;22.72;44.05;100526.28;4380103;32;33178;-86
2022/06/18 05:59:24;;;;;;;6.07;2.40;;;;;;;22.71;44.14;100527.41;4380971;32;34362;-86
2022/06/18 06:01:56;;;;;;;6.60;2.62;;;;;;;22.70;44.49;100528.50;4367817;32;32489;-86
2022/06/18 06:04:25;;;;;;;5.40;2.35;;;;;;;22.69;44.95;100527.66;4380218;32;33321;-89
2022/06/18 06:06:56;;;;;;;4.90;2.70;;;;;;;22.81;44.48;100530.28;4380656;32;33790;-88
2022/06/18 06:12:13;;;;;;;5.25;2.70;;;;;;;22.97;43.82;100529.28;4382752;32;33166;-80
2022/06/18 06:14:41;;;;;;;6.12;2.62;;;;;;;22.99;43.74;100527.88;4367923;32;32888;-85
2022/06/18 06:17:16;;;;;;;3.83;2.00;;;;;;;23.12;43.65;100534.97;4355716;32;32100;-85
2022/06/18 06:19:48;;;;;;;3.85;2.10;;;;;;;23.35;42.00;100530.91;4367593;32;33952;-85
2022/06/18 06:22:15;;;;;;;5.28;2.40;;;;;;;23.26;39.32;100522.16;4367973;32;33547;-79
2022/06/18 06:24:43;;;;;;;7.90;2.95;;;;;;;23.53;38.77;100524.81;4380377;32;33340;-80
2022/06/18 06:27:16;;;;;;;3.87;2.40;;;;;;;23.44;39.24;100531.19;4380338;32;34624;-78
2022/06/18 06:29:44;;;;;;;6.68;2.78;;;;;;;23.55;38.60;100518.94;4368019;32;34656;-79
2022/06/18 06:32:15;;;;;;;7.12;2.70;;;;;;;23.65;38.47;100533.84;4367894;32;32431;-77
2022/06/18 06:34:43;;;;;;;7.78;2.85;;;;;;;23.67;37.93;100536.34;4379401;32;32019;-79
2022/06/18 06:37:10;;;;;;;5.20;2.20;;;;;;;23.76;39.47;100536.69;4367802;32;33804;-80
2022/06/18 06:39:38;;;;;;;4.93;2.53;;;;;;;23.86;39.35;100537.56;4380341;32;34461;-79
2022/06/18 06:42:06;;;;;;;7.03;3.10;;;;;;;23.95;38.45;100537.84;4379882;32;34766;-79
2022/06/18 06:44:35;;;;;;;5.65;2.87;;;;;;;24.05;37.63;100526.62;4368443;32;34200;-79
2022/06/18 06:47:06;;;;;;;5.00;2.53;;;;;;;24.10;37.69;100528.59;4380484;32;33738;-79
2022/06/18 06:49:34;;;;;;;7.68;3.50;;;;;;;24.16;38.12;100530.28;4380298;32;35543;-79
2022/06/18 06:52:05;;;;;;;9.95;4.40;;;;;;;24.19;38.21;100538.16;4367118;32;33724;-79
2022/06/18 06:54:33;;;;;;;7.85;3.28;;;;;;;24.25;37.42;100535.09;4380008;32;33521;-79
2022/06/18 06:59:48;;;;;;;6.12;2.72;;;;;;;24.48;37.16;100530.06;4381708;32;34578;-79
2022/06/18 07:02:18;;;;;;;9.27;3.00;;;;;;;24.51;36.67;100537.94;4367347;32;32481;-79
2022/06/18 07:04:49;;;;;;;8.95;3.10;;;;;;;24.65;37.15;100527.84;4367470;32;31877;-78
2022/06/18 07:07:20;;;;;;;5.70;2.80;;;;;;;24.59;37.07;100535.41;4366819;32;33302;-80
2022/06/18 07:09:48;;;;;;;5.82;2.50;;;;;;;24.68;36.90;100529.25;4367940;32;34607;-79
2022/06/18 07:12:16;;;;;;;5.97;2.83;;;;;;;24.36;35.64;100523.91;4380064;32;33943;-80
2022/06/18 07:14:44;;;;;;;7.85;2.90;;;;;;;24.74;35.73;100530.88;4380101;32;32803;-80
2022/06/18 07:17:17;;;;;;;5.12;2.90;;;;;;;24.67;35.37;100530.34;4380064;32;33463;-80
2022/06/18 07:19:45;;;;;;;5.00;2.70;;;;;;;24.93;35.56;100523.56;4380169;32;35333;-79
2022/06/18 07:22:13;;;;;;;7.57;2.30;;;;;;;24.95;35.23;100526.94;4367078;32;34487;-79
2022/06/18 07:24:41;;;;;;;6.43;2.40;;;;;;;25.10;34.86;100523.28;4379822;32;33381;-79
2022/06/18 07:27:09;;;;;;;5.93;2.55;;;;;;;25.14;34.33;100519.63;4379406;32;33692;-80
2022/06/18 07:29:36;;;;;;;5.30;2.55;;;;;;;25.21;34.21;100528.59;4379978;32;35261;-80
2022/06/18 07:32:12;;;;;;;5.30;2.30;;;;;;;25.31;34.77;100518.44;4379540;32;32618;-79
2022/06/18 07:34:40;;;;;;;5.62;2.53;;;;;;;25.55;34.54;100523.09;4379615;32;33264;-79
2022/06/18 07:37:08;;;;;;;5.28;2.37;;;;;;;25.30;34.53;100522.38;4354555;32;32990;-80
2022/06/18 07:39:38;;;;;;;4.40;2.22;;;;;;;25.43;34.30;100514.16;4379596;32;35344;-80
2022/06/18 07:42:09;;;;;;;4.80;2.35;;;;;;;25.50;34.65;100522.28;4355427;32;32514;-79
2022/06/18 07:44:37;;;;;;;5.65;2.58;;;;;;;25.48;34.29;100524.53;4379874;32;34303;-79
2022/06/18 07:47:05;;;;;;;5.93;2.20;;;;;;;25.56;33.81;100516.34;4379410;32;32421;-79
2022/06/18 07:49:33;;;;;;;4.80;2.00;;;;;;;25.25;33.42;100514.81;4367156;32;34389;-79
2022/06/18 07:52:03;;;;;;;4.18;2.10;;;;;;;25.64;33.24;100522.50;4379537;32;32517;-80
2022/06/18 07:54:35;;;;;;;4.47;2.28;;;;;;;25.68;33.04;100526.44;4379861;32;33595;-80
2022/06/18 07:57:05;;;;;;;5.00;2.20;;;;;;;25.74;33.10;100525.28;4366744;32;32012;-78
2022/06/18 07:59:33;;;;;;;5.62;2.50;;;;;;;25.81;33.22;100523.84;4379471;32;34435;-80
2022/06/18 08:02:01;;;;;;;7.40;1.90;;;;;;;25.78;33.48;100517.97;4376503;32;32524;-80
2022/06/18 08:04:31;;;;;;;5.97;2.50;;;;;;;25.78;33.35;100517.97;4364151;32;33300;-80
2022/06/18 08:07:03;;;;;;;4.25;2.33;;;;;;;26.02;33.70;100518.06;4364347;32;34671;-80
2022/06/18 08:09:33;;;;;;;4.03;2.00;;;;;;;26.04;33.46;100504.56;4364239;32;35273;-80
2022/06/18 08:12:02;;;;;;;6.22;2.20;;;;;;;26.16;32.82;100507.84;4376448;32;34000;-79
2022/06/18 08:14:29;;;;;;;5.10;2.20;;;;;;;26.06;33.06;100513.56;4363061;32;33802;-80
2022/06/18 08:16:57;;;;;;;6.95;2.42;;;;;;;26.38;33.24;100504.63;4364377;32;33619;-86
2022/06/18 08:19:25;;;;;;;6.95;2.55;;;;;;;26.38;32.59;100505.47;4363956;32;35428;-89
2022/06/18 08:21:53;;;;;;;4.93;2.28;;;;;;;26.40;32.60;100506.03;4364546;32;32609;-88
2022/06/18 08:24:25;;;;;;;4.87;2.20;;;;;;;26.56;32.40;100507.56;4364348;32;31953;-88
2022/06/18 08:26:55;;;;;;;5.85;1.92;;;;;;;26.41;31.83;100506.84;4364409;32;33908;-90
2022/06/18 08:29:27;;;;;;;6.53;2.25;;;;;;;26.63;32.27;100506.38;4364516;32;35338;-89
2022/06/18 08:31:59;;;;;;;5.22;2.10;;;;;;;26.74;31.78;100491.88;4363688;32;34028;-87
2022/06/18 08:34:30;;;;;;;6.07;1.90;;;;;;;26.76;31.24;100495.25;4363314;32;32009;-78
2022/06/18 08:36:59;;;;;;;6.32;2.53;;;;;;;26.92;31.57;100491.13;4377580;32;34350;-78
2022/06/18 08:39:26;;;;;;;4.15;1.80;;;;;;;27.11;32.97;100496.06;4376564;32;35443;-79
2022/06/18 08:42:19;;;;;;;4.43;2.00;;;;;;;27.00;31.07;100500.97;4376458;32;34224;-79
2022/06/18 08:45:15;;;;;;;4.70;2.03;;;;;;;26.83;30.29;100490.09;4376370;32;32721;-78
2022/06/18 08:47:46;;;;;;;5.93;2.00;;;;;;;27.26;30.69;100486.56;4376000;32;33878;-82
2022/06/18 08:50:32;;;;;;;5.07;1.80;;;;;;;27.48;30.90;100484.00;4375927;32;34335;-80
2022/06/18 08:53:22;;;;;;;4.80;1.75;;;;;;;27.64;29.03;100482.69;4376630;32;33967;-80
2022/06/18 08:56:00;;;;;;;5.75;2.33;;;;;;;27.74;29.21;100476.91;4363943;32;33195;-81
2022/06/18 08:58:40;;;;;;;4.00;1.90;;;;;;;27.83;29.51;100475.09;4364153;32;32404;-80
2022/06/18 09:01:17;;;;;;;7.18;2.20;;;;;;;27.83;28.77;100474.25;4376367;32;34452;-81
2022/06/18 09:03:50;;;;;;;5.57;2.00;;;;;;;27.91;29.31;100470.75;4377461;32;33915;-80
2022/06/18 09:06:56;;;;;;;5.65;2.28;;;;;;;27.63;29.85;100475.38;4376392;32;33501;-81
2022/06/18 09:09:26;;;;;;;7.47;2.10;;;;;;;28.02;30.15;100468.59;4376319;32;33527;-81
2022/06/18 09:12:12;;;;;;;6.70;2.10;;;;;;;28.15;31.09;100477.13;4376244;32;35204;-81
2022/06/18 09:14:42;;;;;;;6.53;2.12;;;;;;;28.37;30.40;100467.22;4375377;32;33679;-81
2022/06/18 09:17:23;;;;;;;3.95;1.80;;;;;;;28.36;29.33;100462.72;4365782;32;31791;-81
2022/06/18 09:20:21;;;;;;;5.07;1.70;;;;;;;28.29;29.33;100459.44;4378100;32;34553;-81
2022/06/18 09:23:11;;;;;;;4.00;1.77;;;;;;;28.60;28.66;100457.72;4365469;32;34222;-82
2022/06/18 09:25:42;;;;;;;4.28;1.60;;;;;;;28.83;29.35;100459.59;4377867;32;33665;-80
2022/06/18 09:28:16;;;;;;;4.37;1.50;;;;;;;28.72;25.60;100458.06;4365042;32;33634;-81
2022/06/18 09:31:08;;;;;;;2.62;1.33;;;;;;;29.03;26.96;100463.19;4364802;32;32370;-82
2022/06/18 09:33:41;;;;;;;3.62;1.60;;;;;;;28.95;27.02;100452.59;4366156;32;35250;-81
2022/06/18 09:36:16;;;;;;;5.25;1.65;;;;;;;28.85;26.99;100457.28;4378161;32;34094;-82
2022/06/18 09:38:56;;;;;;;3.65;1.40;;;;;;;28.72;26.15;100457.25;4364671;32;33063;-83
2022/06/18 09:41:35;;;;;;;5.05;1.50;;;;;;;29.26;26.45;100447.13;4364922;32;33671;-82
2022/06/18 09:44:09;;;;;;;4.30;1.55;;;;;;;29.33;26.28;100444.72;4365087;32;34240;-83
2022/06/18 09:46:43;;;;;;;4.32;1.20;;;;;;;29.42;27.09;100438.03;4377417;32;34597;-82
2022/06/18 09:49:11;;;;;;;4.47;1.20;;;;;;;29.18;25.50;100448.72;4365300;32;33289;-79
2022/06/18 09:51:47;;;;;;;3.10;1.40;;;;;;;29.48;25.93;100439.59;4365804;32;34595;-83
2022/06/18 09:54:17;;;;;;;4.25;1.40;;;;;;;29.46;26.08;100432.59;4366015;32;34025;-83
2022/06/18 09:56:52;;;;;;;3.15;1.40;;;;;;;29.58;26.01;100438.53;4365634;32;34930;-84
2022/06/18 09:59:34;;;;;;;2.62;1.45;;;;;;;29.78;25.72;100435.25;4365548;32;33598;-83
2022/06/18 10:02:08;;;;;;;4.50;1.65;;;;;;;29.90;26.33;100431.81;4365374;32;32355;-83
2022/06/18 10:07:29;;;;;;;3.83;1.60;;;;;;;30.21;26.47;100429.12;4367542;32;32610;-82
2022/06/18 10:10:02;;;;;;;3.33;1.50;;;;;;;30.41;26.72;100428.59;4365617;32;33344;-83
2022/06/18 10:12:36;;;;;;;4.87;1.70;;;;;;;30.71;25.22;100421.28;4365545;32;34669;-82
2022/06/18 10:15:07;;;;;;;2.87;1.40;;;;;;;30.49;23.26;100412.81;4353351;32;33876;-82
2022/06/18 10:17:50;;;;;;;3.58;1.40;;;;;;;30.66;23.71;100420.59;4381255;32;34989;-82
2022/06/18 10:20:31;;;;;;;5.12;1.48;;;;;;;31.05;24.29;100409.25;4368845;32;32716;-82
2022/06/18 10:23:30;;;;;;;5.90;1.60;;;;;;;30.84;23.65;100408.16;4365602;32;32471;-93
2022/06/18 10:26:21;;;;;;;3.70;2.10;;;;;;;30.94;23.38;100398.53;4365778;32;33022;-89
2022/06/18 10:29:10;;;;;;;4.22;1.92;;;;;;;30.99;23.09;100398.41;4380695;32;34373;-86
2022/06/18 10:31:44;;;;;;;9.00;1.70;;;;;;;31.05;24.61;100394.25;4336123;33;33305;-87
2022/06/18 10:34:21;;;;;;;3.67;1.50;;;;;;;31.26;25.13;100389.63;4360717;32;32165;-90
2022/06/18 10:37:18;;;;;;;3.72;1.35;;;;;;;30.90;24.10;100395.53;4380151;32;34589;-84
2022/06/18 10:40:29;;;;;;;;;;;;;;;30.96;22.88;100390.53;4367494;32;33038;-83
2022/06/18 10:43:08;;;;;;;4.75;1.90;;;;;;;31.58;23.94;100390.38;4345645;33;33217;-85
2022/06/18 10:45:45;;;;;;;3.90;1.60;;;;;;;31.76;23.05;100395.75;4335676;33;32207;-84
2022/06/18 10:48:32;;;;;;;6.28;2.17;;;;;;;31.60;22.78;100386.03;4359607;32;34560;-84
2022/06/18 10:51:03;;;;;;;4.22;1.98;;;;;;;31.62;22.30;100389.37;4369668;32;33802;-84
2022/06/18 10:53:50;;;;;;;19.33;10.82;;;;;;;32.17;21.96;100376.50;4368809;32;33533;-85
2022/06/18 10:56:21;;;;;;;5.90;3.10;;;;;;;32.45;22.96;100379.81;4354461;32;33192;-83
2022/06/18 10:58:57;;;;;;;3.80;1.67;;;;;;;32.21;22.33;100368.97;4356316;32;34561;-83
2022/06/18 11:01:34;;;;;;;3.00;1.48;;;;;;;31.69;21.56;100380.41;4368908;32;33273;-84
2022/06/18 11:04:24;;;;;;;3.85;1.48;;;;;;;31.67;22.01;100371.34;4366505;32;33426;-83
2022/06/18 11:07:06;;;;;;;8.27;3.92;;;;;;;31.86;22.21;100369.00;4356851;32;33497;-84
2022/06/18 11:09:54;;;;;;;3.50;1.20;;;;;;;32.41;23.18;100368.31;4341574;32;32789;-84
2022/06/18 11:12:29;;;;;;;6.72;2.67;;;;;;;32.58;21.74;100361.69;4342355;32;32691;-84
2022/06/18 11:14:58;;;;;;;5.60;1.40;;;;;;;32.45;21.84;100357.94;4354812;32;33386;-84
2022/06/18 11:17:32;;;;;;;4.87;2.10;;;;;;;32.80;22.22;100358.63;4355611;32;32330;-84
2022/06/18 11:20:19;;;;;;;3.40;1.90;;;;;;;32.74;21.59;100360.81;4356477;32;35184;-84
2022/06/18 11:22:52;;;;;;;7.37;3.15;;;;;;;32.99;22.64;100350.50;4368142;32;34860;-85
2022/06/18 11:25:32;;;;;;;3.55;1.60;;;;;;;33.19;22.27;100339.50;4356083;32;33563;-84
2022/06/18 11:28:03;;;;;;;4.70;1.73;;;;;;;33.28;21.91;100331.78;4365309;32;33896;-85
2022/06/18 11:30:34;;;;;;;8.25;3.28;;;;;;;33.29;22.19;100333.44;4337858;32;33339;-81
2022/06/18 11:33:05;;;;;;;6.30;3.25;;;;;;;33.37;22.19;100330.53;4362406;32;34042;-81
2022/06/18 11:35:39;;;;;;;4.90;1.30;;;;;;;33.55;21.98;100328.37;4362372;32;34236;-81
2022/06/18 11:38:37;;;;;;;3.70;1.35;;;;;;;33.75;22.30;100320.19;4361512;32;34573;-81
2022/06/18 11:41:25;;;;;;;3.08;1.40;;;;;;;33.61;20.88;100315.59;4347275;32;33981;-82
2022/06/18 11:44:08;;;;;;;4.97;1.80;;;;;;;33.34;20.15;100313.31;4362310;32;34010;-81
2022/06/18 11:46:42;;;;;;;6.95;3.37;;;;;;;33.64;21.18;100305.53;4350205;32;34476;-81
2022/06/18 11:49:21;;;;;;;5.32;1.40;;;;;;;33.65;21.37;100296.66;4362363;32;33805;-81
2022/06/18 11:52:09;;;;;;;5.03;1.77;;;;;;;33.54;20.81;100301.09;4362304;32;34550;-81
2022/06/18 11:54:45;;;;;;;5.05;2.28;;;;;;;33.44;21.11;100298.66;4362133;32;33866;-82
2022/06/18 11:57:18;;;;;;;2.95;1.30;;;;;;;33.38;21.29;100289.50;4350142;32;31834;-82
2022/06/18 12:00:07;;;;;;;2.85;1.23;;;;;;;32.66;20.90;100292.62;4358035;32;171593;-82
2022/06/18 12:02:58;;;;;;;4.45;1.60;;;;;;;32.87;20.82;100287.00;4337795;32;33951;-82
2022/06/18 12:05:31;;;;;;;4.55;1.62;;;;;;;33.26;21.70;100285.72;4349974;32;33774;-82
2022/06/18 12:08:01;;;;;;;3.33;1.20;;;;;;;33.29;20.68;100290.75;4350001;32;33425;-82